sensor_id;sensor_type;location;lat;lon;timestamp;temperature;humidity
58413;DHT22;44209;52.952;6.790;2023-05-07T00:00:01;13.30;99.90
58413;DHT22;44209;52.952;6.790;2023-05-07T00:02:26;13.30;99.90
58413;DHT22;44209;52.952;6.790;2023-05-07T00:04:52;13.30;99.90
58413;DHT22;44209;52.952;6.790;2023-05-07T00:07:18;13.30;99.90
58413;DHT22;44209;52.952;6.790;2023-05-07T00:09:44;13.20;99.90
58413;DHT22;44209;52.952;6.790;2023-05-07T00:12:10;13.20;99.90
58413;DHT22;44209;52.952;6.790;2023-05-07T00:14:36;13.20;99.90
58413;DHT22;44209;52.952;6.790;2023-05-07T00:17:01;13.20;99.90
58413;DHT22;44209;52.952;6.790;2023-05-07T00:19:27;13.10;99.90
58413;DHT22;44209;52.952;6.790;2023-05-07T00:21:53;13.10;99.90
58413;DHT22;44209;52.952;6.790;2023-05-07T00:24:19;13.10;99.90
58413;DHT22;44209;52.952;6.790;2023-05-07T00:26:45;13.10;99.90
58413;DHT22;44209;52.952;6.790;2023-05-07T00:29:11;13.10;99.90
58413;DHT22;44209;52.952;6.790;2023-05-07T00:31:36;13.00;99.90
58413;DHT22;44209;52.952;6.790;2023-05-07T00:34:02;13.00;99.90
58413;DHT22;44209;52.952;6.790;2023-05-07T00:36:28;13.00;99.90
58413;DHT22;44209;52.952;6.790;2023-05-07T00:38:54;12.90;99.90
58413;DHT22;44209;52.952;6.790;2023-05-07T00:41:20;12.90;99.90
58413;DHT22;44209;52.952;6.790;2023-05-07T00:43:46;12.90;99.90
58413;DHT22;44209;52.952;6.790;2023-05-07T00:46:13;12.80;99.90
58413;DHT22;44209;52.952;6.790;2023-05-07T00:48:39;12.80;99.90
58413;DHT22;44209;52.952;6.790;2023-05-07T00:51:05;12.80;99.90
58413;DHT22;44209;52.952;6.790;2023-05-07T00:53:31;12.80;99.90
58413;DHT22;44209;52.952;6.790;2023-05-07T00:55:57;12.70;99.90
58413;DHT22;44209;52.952;6.790;2023-05-07T00:58:23;12.70;99.90
58413;DHT22;44209;52.952;6.790;2023-05-07T01:00:50;12.70;99.90
58413;DHT22;44209;52.952;6.790;2023-05-07T01:03:16;12.60;99.90
58413;DHT22;44209;52.952;6.790;2023-05-07T01:05:42;12.70;99.90
58413;DHT22;44209;52.952;6.790;2023-05-07T01:08:09;12.60;99.90
58413;DHT22;44209;52.952;6.790;2023-05-07T01:10:36;12.60;99.90
58413;DHT22;44209;52.952;6.790;2023-05-07T01:13:02;12.60;99.90
58413;DHT22;44209;52.952;6.790;2023-05-07T01:15:28;12.60;99.90
58413;DHT22;44209;52.952;6.790;2023-05-07T01:17:53;12.50;99.90
58413;DHT22;44209;52.952;6.790;2023-05-07T01:20:22;12.50;99.90
58413;DHT22;44209;52.952;6.790;2023-05-07T01:22:48;12.50;99.90
58413;DHT22;44209;52.952;6.790;2023-05-07T01:25:15;12.50;99.90
58413;DHT22;44209;52.952;6.790;2023-05-07T01:27:41;12.40;99.90
58413;DHT22;44209;52.952;6.790;2023-05-07T01:30:07;12.40;99.90
58413;DHT22;44209;52.952;6.790;2023-05-07T01:33:01;12.40;99.90
58413;DHT22;44209;52.952;6.790;2023-05-07T01:35:34;12.30;99.90
58413;DHT22;44209;52.952;6.790;2023-05-07T01:38:01;12.30;99.90
58413;DHT22;44209;52.952;6.790;2023-05-07T01:40:30;12.20;99.90
58413;DHT22;44209;52.952;6.790;2023-05-07T01:42:55;12.10;99.90
58413;DHT22;44209;52.952;6.790;2023-05-07T01:45:21;12.10;99.90
58413;DHT22;44209;52.952;6.790;2023-05-07T01:47:53;12.10;99.90
58413;DHT22;44209;52.952;6.790;2023-05-07T01:50:20;12.00;99.90
58413;DHT22;44209;52.952;6.790;2023-05-07T01:52:47;12.10;99.90
58413;DHT22;44209;52.952;6.790;2023-05-07T01:55:14;12.00;99.90
58413;DHT22;44209;52.952;6.790;2023-05-07T01:57:40;12.00;99.90
58413;DHT22;44209;52.952;6.790;2023-05-07T02:00:07;12.00;99.90
58413;DHT22;44209;52.952;6.790;2023-05-07T02:02:34;12.00;99.90
58413;DHT22;44209;52.952;6.790;2023-05-07T02:05:00;12.00;99.90
58413;DHT22;44209;52.952;6.790;2023-05-07T02:07:29;11.90;99.90
58413;DHT22;44209;52.952;6.790;2023-05-07T02:09:54;12.00;99.90
58413;DHT22;44209;52.952;6.790;2023-05-07T02:12:21;11.90;99.90
58413;DHT22;44209;52.952;6.790;2023-05-07T02:14:47;11.90;99.90
58413;DHT22;44209;52.952;6.790;2023-05-07T02:17:13;11.90;99.90
58413;DHT22;44209;52.952;6.790;2023-05-07T02:19:38;11.80;99.90
58413;DHT22;44209;52.952;6.790;2023-05-07T02:22:04;11.80;99.90
58413;DHT22;44209;52.952;6.790;2023-05-07T02:24:30;11.80;99.90
58413;DHT22;44209;52.952;6.790;2023-05-07T02:26:55;11.80;99.90
58413;DHT22;44209;52.952;6.790;2023-05-07T02:29:21;11.70;99.90
58413;DHT22;44209;52.952;6.790;2023-05-07T02:31:47;11.70;99.90
58413;DHT22;44209;52.952;6.790;2023-05-07T02:34:16;11.70;99.90
58413;DHT22;44209;52.952;6.790;2023-05-07T02:36:42;11.70;99.90
58413;DHT22;44209;52.952;6.790;2023-05-07T02:39:08;11.70;99.90
58413;DHT22;44209;52.952;6.790;2023-05-07T02:41:34;11.70;99.90
58413;DHT22;44209;52.952;6.790;2023-05-07T02:44:00;11.60;99.90
58413;DHT22;44209;52.952;6.790;2023-05-07T02:46:26;11.60;99.90
58413;DHT22;44209;52.952;6.790;2023-05-07T02:48:51;11.70;99.90
58413;DHT22;44209;52.952;6.790;2023-05-07T02:51:21;11.60;99.90
58413;DHT22;44209;52.952;6.790;2023-05-07T02:53:47;11.60;99.90
58413;DHT22;44209;52.952;6.790;2023-05-07T02:56:13;11.60;99.90
58413;DHT22;44209;52.952;6.790;2023-05-07T02:58:39;11.60;99.90
58413;DHT22;44209;52.952;6.790;2023-05-07T03:01:05;11.60;99.90
58413;DHT22;44209;52.952;6.790;2023-05-07T03:03:31;11.60;99.90
58413;DHT22;44209;52.952;6.790;2023-05-07T03:05:57;11.60;99.90
58413;DHT22;44209;52.952;6.790;2023-05-07T03:08:23;11.60;99.90
58413;DHT22;44209;52.952;6.790;2023-05-07T03:10:49;11.60;99.90
58413;DHT22;44209;52.952;6.790;2023-05-07T03:13:15;11.60;99.90
58413;DHT22;44209;52.952;6.790;2023-05-07T03:15:40;11.60;99.90
58413;DHT22;44209;52.952;6.790;2023-05-07T03:18:06;11.60;99.90
58413;DHT22;44209;52.952;6.790;2023-05-07T03:20:32;11.60;99.90
58413;DHT22;44209;52.952;6.790;2023-05-07T03:22:58;11.50;99.90
58413;DHT22;44209;52.952;6.790;2023-05-07T03:25:23;11.50;99.90
58413;DHT22;44209;52.952;6.790;2023-05-07T03:27:49;11.50;99.90
58413;DHT22;44209;52.952;6.790;2023-05-07T03:30:15;11.50;99.90
58413;DHT22;44209;52.952;6.790;2023-05-07T03:32:41;11.40;99.90
58413;DHT22;44209;52.952;6.790;2023-05-07T03:35:07;11.40;99.90
58413;DHT22;44209;52.952;6.790;2023-05-07T03:37:33;11.40;99.90
58413;DHT22;44209;52.952;6.790;2023-05-07T03:39:58;11.40;99.90
58413;DHT22;44209;52.952;6.790;2023-05-07T03:42:25;11.40;99.90
58413;DHT22;44209;52.952;6.790;2023-05-07T03:44:50;11.40;99.90
58413;DHT22;44209;52.952;6.790;2023-05-07T03:47:16;11.40;99.90
58413;DHT22;44209;52.952;6.790;2023-05-07T03:49:42;11.40;99.90
58413;DHT22;44209;52.952;6.790;2023-05-07T03:52:08;11.40;99.90
58413;DHT22;44209;52.952;6.790;2023-05-07T03:54:33;11.40;99.90
58413;DHT22;44209;52.952;6.790;2023-05-07T03:56:59;11.30;99.90
58413;DHT22;44209;52.952;6.790;2023-05-07T03:59:25;11.30;99.90
58413;DHT22;44209;52.952;6.790;2023-05-07T04:01:50;11.30;99.90
58413;DHT22;44209;52.952;6.790;2023-05-07T04:04:16;11.30;99.90
58413;DHT22;44209;52.952;6.790;2023-05-07T04:06:42;11.40;99.90
58413;DHT22;44209;52.952;6.790;2023-05-07T04:09:08;11.40;99.90
58413;DHT22;44209;52.952;6.790;2023-05-07T04:11:35;11.40;99.90
58413;DHT22;44209;52.952;6.790;2023-05-07T04:14:00;11.40;99.90
58413;DHT22;44209;52.952;6.790;2023-05-07T04:16:26;11.40;99.90
58413;DHT22;44209;52.952;6.790;2023-05-07T04:18:52;11.40;99.90
58413;DHT22;44209;52.952;6.790;2023-05-07T04:21:19;11.40;99.90
58413;DHT22;44209;52.952;6.790;2023-05-07T04:23:46;11.40;99.90
58413;DHT22;44209;52.952;6.790;2023-05-07T04:26:12;11.40;99.90
58413;DHT22;44209;52.952;6.790;2023-05-07T04:28:38;11.40;99.90
58413;DHT22;44209;52.952;6.790;2023-05-07T04:31:05;11.30;99.90
58413;DHT22;44209;52.952;6.790;2023-05-07T04:33:31;11.30;99.90
58413;DHT22;44209;52.952;6.790;2023-05-07T04:35:57;11.30;99.90
58413;DHT22;44209;52.952;6.790;2023-05-07T04:38:31;11.40;99.90
58413;DHT22;44209;52.952;6.790;2023-05-07T04:41:06;11.30;99.90
58413;DHT22;44209;52.952;6.790;2023-05-07T04:43:32;11.40;99.90
58413;DHT22;44209;52.952;6.790;2023-05-07T04:45:57;11.40;99.90
58413;DHT22;44209;52.952;6.790;2023-05-07T04:48:23;11.40;99.90
58413;DHT22;44209;52.952;6.790;2023-05-07T04:50:52;11.40;99.90
58413;DHT22;44209;52.952;6.790;2023-05-07T04:53:18;11.40;99.90
58413;DHT22;44209;52.952;6.790;2023-05-07T04:55:44;11.50;99.90
58413;DHT22;44209;52.952;6.790;2023-05-07T04:58:11;11.40;99.90
58413;DHT22;44209;52.952;6.790;2023-05-07T05:00:38;11.40;99.90
58413;DHT22;44209;52.952;6.790;2023-05-07T05:03:05;11.50;99.90
58413;DHT22;44209;52.952;6.790;2023-05-07T05:05:31;11.50;99.90
58413;DHT22;44209;52.952;6.790;2023-05-07T05:07:57;11.50;99.90
58413;DHT22;44209;52.952;6.790;2023-05-07T05:10:22;11.50;99.90
58413;DHT22;44209;52.952;6.790;2023-05-07T05:12:48;11.50;99.90
58413;DHT22;44209;52.952;6.790;2023-05-07T05:15:14;11.50;99.90
58413;DHT22;44209;52.952;6.790;2023-05-07T05:17:40;11.50;99.90
58413;DHT22;44209;52.952;6.790;2023-05-07T05:20:06;11.50;99.90
58413;DHT22;44209;52.952;6.790;2023-05-07T05:22:32;11.50;99.90
58413;DHT22;44209;52.952;6.790;2023-05-07T05:24:58;11.50;99.90
58413;DHT22;44209;52.952;6.790;2023-05-07T05:27:24;11.50;99.90
58413;DHT22;44209;52.952;6.790;2023-05-07T05:29:50;11.50;99.90
58413;DHT22;44209;52.952;6.790;2023-05-07T05:32:15;11.50;99.90
58413;DHT22;44209;52.952;6.790;2023-05-07T05:34:41;11.60;99.90
58413;DHT22;44209;52.952;6.790;2023-05-07T05:37:07;11.60;99.90
58413;DHT22;44209;52.952;6.790;2023-05-07T05:39:32;11.60;99.90
58413;DHT22;44209;52.952;6.790;2023-05-07T05:41:58;11.50;99.90
58413;DHT22;44209;52.952;6.790;2023-05-07T05:44:24;11.50;99.90
58413;DHT22;44209;52.952;6.790;2023-05-07T05:46:50;11.60;99.90
58413;DHT22;44209;52.952;6.790;2023-05-07T05:49:16;11.60;99.90
58413;DHT22;44209;52.952;6.790;2023-05-07T05:51:42;11.60;99.90
58413;DHT22;44209;52.952;6.790;2023-05-07T05:54:08;11.60;99.90
58413;DHT22;44209;52.952;6.790;2023-05-07T05:56:33;11.60;99.90
58413;DHT22;44209;52.952;6.790;2023-05-07T05:58:59;11.60;99.90
58413;DHT22;44209;52.952;6.790;2023-05-07T06:01:25;11.60;99.90
58413;DHT22;44209;52.952;6.790;2023-05-07T06:03:51;11.70;99.90
58413;DHT22;44209;52.952;6.790;2023-05-07T06:06:17;11.70;99.90
58413;DHT22;44209;52.952;6.790;2023-05-07T06:08:43;11.70;99.90
58413;DHT22;44209;52.952;6.790;2023-05-07T06:11:08;11.80;99.90
58413;DHT22;44209;52.952;6.790;2023-05-07T06:13:34;11.80;99.90
58413;DHT22;44209;52.952;6.790;2023-05-07T06:16:00;11.90;99.90
58413;DHT22;44209;52.952;6.790;2023-05-07T06:18:25;12.00;99.90
58413;DHT22;44209;52.952;6.790;2023-05-07T06:20:52;12.00;99.90
58413;DHT22;44209;52.952;6.790;2023-05-07T06:23:18;12.10;99.90
58413;DHT22;44209;52.952;6.790;2023-05-07T06:25:50;12.10;99.90
58413;DHT22;44209;52.952;6.790;2023-05-07T06:28:16;12.10;99.90
58413;DHT22;44209;52.952;6.790;2023-05-07T06:30:42;12.10;99.90
58413;DHT22;44209;52.952;6.790;2023-05-07T06:33:07;12.20;99.90
58413;DHT22;44209;52.952;6.790;2023-05-07T06:35:33;12.20;99.90
58413;DHT22;44209;52.952;6.790;2023-05-07T06:38:00;12.10;99.90
58413;DHT22;44209;52.952;6.790;2023-05-07T06:40:26;12.10;99.90
58413;DHT22;44209;52.952;6.790;2023-05-07T06:42:51;12.10;99.90
58413;DHT22;44209;52.952;6.790;2023-05-07T06:45:17;12.10;99.90
58413;DHT22;44209;52.952;6.790;2023-05-07T06:47:43;12.10;99.90
58413;DHT22;44209;52.952;6.790;2023-05-07T06:50:09;12.00;99.90
58413;DHT22;44209;52.952;6.790;2023-05-07T06:52:35;12.00;99.90
58413;DHT22;44209;52.952;6.790;2023-05-07T06:55:01;12.00;99.90
58413;DHT22;44209;52.952;6.790;2023-05-07T06:57:26;11.90;99.90
58413;DHT22;44209;52.952;6.790;2023-05-07T06:59:52;12.00;99.90
58413;DHT22;44209;52.952;6.790;2023-05-07T07:02:18;12.00;99.90
58413;DHT22;44209;52.952;6.790;2023-05-07T07:04:44;12.00;99.90
58413;DHT22;44209;52.952;6.790;2023-05-07T07:07:10;12.00;99.90
58413;DHT22;44209;52.952;6.790;2023-05-07T07:09:36;12.10;99.90
58413;DHT22;44209;52.952;6.790;2023-05-07T07:12:02;12.10;99.90
58413;DHT22;44209;52.952;6.790;2023-05-07T07:14:27;12.10;99.90
58413;DHT22;44209;52.952;6.790;2023-05-07T07:16:53;12.20;99.90
58413;DHT22;44209;52.952;6.790;2023-05-07T07:19:19;12.20;99.90
58413;DHT22;44209;52.952;6.790;2023-05-07T07:21:45;12.30;99.90
58413;DHT22;44209;52.952;6.790;2023-05-07T07:24:12;12.40;99.90
58413;DHT22;44209;52.952;6.790;2023-05-07T07:26:38;12.40;99.90
58413;DHT22;44209;52.952;6.790;2023-05-07T07:29:05;12.50;99.90
58413;DHT22;44209;52.952;6.790;2023-05-07T07:31:32;12.50;99.90
58413;DHT22;44209;52.952;6.790;2023-05-07T07:33:58;12.60;99.90
58413;DHT22;44209;52.952;6.790;2023-05-07T07:36:23;12.60;99.90
58413;DHT22;44209;52.952;6.790;2023-05-07T07:38:49;12.70;99.90
58413;DHT22;44209;52.952;6.790;2023-05-07T07:41:15;12.70;99.90
58413;DHT22;44209;52.952;6.790;2023-05-07T07:43:40;12.60;99.90
58413;DHT22;44209;52.952;6.790;2023-05-07T07:46:06;12.60;99.90
58413;DHT22;44209;52.952;6.790;2023-05-07T07:48:32;12.70;99.90
58413;DHT22;44209;52.952;6.790;2023-05-07T07:50:57;12.70;99.90
58413;DHT22;44209;52.952;6.790;2023-05-07T07:53:23;12.70;99.90
58413;DHT22;44209;52.952;6.790;2023-05-07T07:55:49;12.70;99.90
58413;DHT22;44209;52.952;6.790;2023-05-07T07:58:14;12.80;99.90
58413;DHT22;44209;52.952;6.790;2023-05-07T08:00:40;12.80;99.90
58413;DHT22;44209;52.952;6.790;2023-05-07T08:03:09;12.90;99.90
58413;DHT22;44209;52.952;6.790;2023-05-07T08:05:35;12.90;99.90
58413;DHT22;44209;52.952;6.790;2023-05-07T08:08:01;12.90;99.90
58413;DHT22;44209;52.952;6.790;2023-05-07T08:10:27;13.00;99.90
58413;DHT22;44209;52.952;6.790;2023-05-07T08:12:52;13.00;99.90
58413;DHT22;44209;52.952;6.790;2023-05-07T08:15:18;13.00;99.90
58413;DHT22;44209;52.952;6.790;2023-05-07T08:17:44;13.10;99.90
58413;DHT22;44209;52.952;6.790;2023-05-07T08:20:10;13.10;99.90
58413;DHT22;44209;52.952;6.790;2023-05-07T08:22:36;13.20;99.90
58413;DHT22;44209;52.952;6.790;2023-05-07T08:25:03;13.30;99.90
58413;DHT22;44209;52.952;6.790;2023-05-07T08:27:28;13.30;99.90
58413;DHT22;44209;52.952;6.790;2023-05-07T08:29:54;13.40;99.90
58413;DHT22;44209;52.952;6.790;2023-05-07T08:32:21;13.40;99.90
58413;DHT22;44209;52.952;6.790;2023-05-07T08:34:47;13.40;99.90
58413;DHT22;44209;52.952;6.790;2023-05-07T08:37:13;13.40;99.90
58413;DHT22;44209;52.952;6.790;2023-05-07T08:39:39;13.40;99.90
58413;DHT22;44209;52.952;6.790;2023-05-07T08:42:04;13.50;99.90
58413;DHT22;44209;52.952;6.790;2023-05-07T08:44:33;13.50;99.90
58413;DHT22;44209;52.952;6.790;2023-05-07T08:47:01;13.60;99.90
58413;DHT22;44209;52.952;6.790;2023-05-07T08:49:28;13.80;99.90
58413;DHT22;44209;52.952;6.790;2023-05-07T08:51:54;13.90;99.90
58413;DHT22;44209;52.952;6.790;2023-05-07T08:54:21;14.10;99.90
58413;DHT22;44209;52.952;6.790;2023-05-07T08:56:47;14.20;99.90
58413;DHT22;44209;52.952;6.790;2023-05-07T08:59:13;14.20;99.90
58413;DHT22;44209;52.952;6.790;2023-05-07T09:01:39;14.20;99.90
58413;DHT22;44209;52.952;6.790;2023-05-07T09:04:05;14.20;99.90
58413;DHT22;44209;52.952;6.790;2023-05-07T09:06:33;14.20;99.90
58413;DHT22;44209;52.952;6.790;2023-05-07T09:08:58;14.30;99.90
58413;DHT22;44209;52.952;6.790;2023-05-07T09:11:26;14.40;99.90
58413;DHT22;44209;52.952;6.790;2023-05-07T09:13:56;14.50;99.90
58413;DHT22;44209;52.952;6.790;2023-05-07T09:16:24;14.70;99.90
58413;DHT22;44209;52.952;6.790;2023-05-07T09:18:54;14.80;99.90
58413;DHT22;44209;52.952;6.790;2023-05-07T09:21:21;14.90;99.90
58413;DHT22;44209;52.952;6.790;2023-05-07T09:23:52;15.00;99.90
58413;DHT22;44209;52.952;6.790;2023-05-07T09:26:19;15.10;99.90
58413;DHT22;44209;52.952;6.790;2023-05-07T09:28:46;15.10;99.90
58413;DHT22;44209;52.952;6.790;2023-05-07T09:31:12;15.00;99.90
58413;DHT22;44209;52.952;6.790;2023-05-07T09:33:39;15.00;99.90
58413;DHT22;44209;52.952;6.790;2023-05-07T09:36:06;15.10;99.90
58413;DHT22;44209;52.952;6.790;2023-05-07T09:38:33;15.20;99.90
58413;DHT22;44209;52.952;6.790;2023-05-07T09:41:04;15.30;99.90
58413;DHT22;44209;52.952;6.790;2023-05-07T09:43:35;15.40;99.90
58413;DHT22;44209;52.952;6.790;2023-05-07T09:46:07;15.50;99.90
58413;DHT22;44209;52.952;6.790;2023-05-07T09:48:37;15.60;99.90
58413;DHT22;44209;52.952;6.790;2023-05-07T09:51:10;15.60;99.90
58413;DHT22;44209;52.952;6.790;2023-05-07T09:53:37;15.70;99.90
58413;DHT22;44209;52.952;6.790;2023-05-07T09:56:04;15.70;99.90
58413;DHT22;44209;52.952;6.790;2023-05-07T09:58:32;15.80;99.90
58413;DHT22;44209;52.952;6.790;2023-05-07T10:00:58;15.80;99.90
58413;DHT22;44209;52.952;6.790;2023-05-07T10:03:24;16.00;99.90
58413;DHT22;44209;52.952;6.790;2023-05-07T10:05:53;16.10;99.90
58413;DHT22;44209;52.952;6.790;2023-05-07T10:08:19;16.30;99.90
58413;DHT22;44209;52.952;6.790;2023-05-07T10:10:46;16.40;99.90
58413;DHT22;44209;52.952;6.790;2023-05-07T10:13:12;16.60;99.90
58413;DHT22;44209;52.952;6.790;2023-05-07T10:15:38;16.60;99.90
58413;DHT22;44209;52.952;6.790;2023-05-07T10:18:06;16.70;99.90
58413;DHT22;44209;52.952;6.790;2023-05-07T10:20:34;16.90;99.90
58413;DHT22;44209;52.952;6.790;2023-05-07T10:23:04;17.10;99.90
58413;DHT22;44209;52.952;6.790;2023-05-07T10:25:31;17.20;99.90
58413;DHT22;44209;52.952;6.790;2023-05-07T10:28:01;17.30;99.90
58413;DHT22;44209;52.952;6.790;2023-05-07T10:31:18;17.40;99.90
58413;DHT22;44209;52.952;6.790;2023-05-07T10:33:36;17.50;99.90
58413;DHT22;44209;52.952;6.790;2023-05-07T10:36:03;17.40;99.90
58413;DHT22;44209;52.952;6.790;2023-05-07T10:38:31;17.50;99.90
58413;DHT22;44209;52.952;6.790;2023-05-07T10:40:57;17.60;99.90
58413;DHT22;44209;52.952;6.790;2023-05-07T10:43:22;17.70;99.90
58413;DHT22;44209;52.952;6.790;2023-05-07T10:46:16;17.80;99.90
58413;DHT22;44209;52.952;6.790;2023-05-07T10:51:32;18.10;99.90
58413;DHT22;44209;52.952;6.790;2023-05-07T10:56:39;18.10;99.90
58413;DHT22;44209;52.952;6.790;2023-05-07T11:04:21;17.90;99.90
58413;DHT22;44209;52.952;6.790;2023-05-07T11:15:09;17.70;99.90
58413;DHT22;44209;52.952;6.790;2023-05-07T11:17:55;17.70;99.90
58413;DHT22;44209;52.952;6.790;2023-05-07T11:20:45;17.90;99.90
58413;DHT22;44209;52.952;6.790;2023-05-07T11:26:09;17.90;99.90
58413;DHT22;44209;52.952;6.790;2023-05-07T11:28:39;17.90;99.90
58413;DHT22;44209;52.952;6.790;2023-05-07T11:31:06;18.00;99.90
58413;DHT22;44209;52.952;6.790;2023-05-07T11:33:32;18.10;99.90
58413;DHT22;44209;52.952;6.790;2023-05-07T11:35:59;18.10;99.90
58413;DHT22;44209;52.952;6.790;2023-05-07T11:38:25;18.00;99.90
58413;DHT22;44209;52.952;6.790;2023-05-07T11:40:52;17.90;99.90
58413;DHT22;44209;52.952;6.790;2023-05-07T11:43:19;17.90;99.90
58413;DHT22;44209;52.952;6.790;2023-05-07T11:45:45;18.00;99.90
58413;DHT22;44209;52.952;6.790;2023-05-07T11:48:13;18.10;99.90
58413;DHT22;44209;52.952;6.790;2023-05-07T11:50:53;18.10;99.90
58413;DHT22;44209;52.952;6.790;2023-05-07T11:53:20;18.20;99.90
58413;DHT22;44209;52.952;6.790;2023-05-07T11:55:46;18.30;99.90
58413;DHT22;44209;52.952;6.790;2023-05-07T11:58:12;18.40;99.90
58413;DHT22;44209;52.952;6.790;2023-05-07T12:00:53;18.50;99.90
58413;DHT22;44209;52.952;6.790;2023-05-07T12:03:19;18.80;99.90
58413;DHT22;44209;52.952;6.790;2023-05-07T12:05:46;18.90;99.90
58413;DHT22;44209;52.952;6.790;2023-05-07T12:08:19;19.20;99.90
58413;DHT22;44209;52.952;6.790;2023-05-07T12:10:46;19.50;99.90
58413;DHT22;44209;52.952;6.790;2023-05-07T12:13:20;19.70;99.90
58413;DHT22;44209;52.952;6.790;2023-05-07T12:15:46;19.90;99.90
58413;DHT22;44209;52.952;6.790;2023-05-07T12:18:15;20.10;99.90
58413;DHT22;44209;52.952;6.790;2023-05-07T12:20:42;20.10;99.90
58413;DHT22;44209;52.952;6.790;2023-05-07T12:23:08;20.10;99.90
58413;DHT22;44209;52.952;6.790;2023-05-07T12:25:38;20.10;99.90
58413;DHT22;44209;52.952;6.790;2023-05-07T12:28:05;20.10;99.90
58413;DHT22;44209;52.952;6.790;2023-05-07T12:30:38;20.10;99.90
58413;DHT22;44209;52.952;6.790;2023-05-07T12:33:04;20.20;99.90
58413;DHT22;44209;52.952;6.790;2023-05-07T12:35:31;20.10;99.90
58413;DHT22;44209;52.952;6.790;2023-05-07T12:37:58;20.00;99.90
58413;DHT22;44209;52.952;6.790;2023-05-07T12:40:39;20.00;99.90
58413;DHT22;44209;52.952;6.790;2023-05-07T12:43:05;20.20;99.90
58413;DHT22;44209;52.952;6.790;2023-05-07T12:45:30;20.30;99.90
58413;DHT22;44209;52.952;6.790;2023-05-07T12:48:00;20.40;99.90
58413;DHT22;44209;52.952;6.790;2023-05-07T12:50:31;20.40;99.90
58413;DHT22;44209;52.952;6.790;2023-05-07T12:52:57;20.30;99.90
58413;DHT22;44209;52.952;6.790;2023-05-07T12:55:23;20.30;99.90
58413;DHT22;44209;52.952;6.790;2023-05-07T12:57:49;20.40;99.90
58413;DHT22;44209;52.952;6.790;2023-05-07T13:00:16;20.60;99.90
58413;DHT22;44209;52.952;6.790;2023-05-07T13:02:43;20.50;99.90
58413;DHT22;44209;52.952;6.790;2023-05-07T13:05:12;20.40;99.90
58413;DHT22;44209;52.952;6.790;2023-05-07T13:07:37;20.20;99.90
58413;DHT22;44209;52.952;6.790;2023-05-07T13:10:04;20.00;99.90
58413;DHT22;44209;52.952;6.790;2023-05-07T13:12:30;19.90;99.90
58413;DHT22;44209;52.952;6.790;2023-05-07T13:14:55;19.70;99.90
58413;DHT22;44209;52.952;6.790;2023-05-07T13:17:21;19.60;99.90
58413;DHT22;44209;52.952;6.790;2023-05-07T13:19:47;19.50;99.90
58413;DHT22;44209;52.952;6.790;2023-05-07T13:22:12;19.40;99.90
58413;DHT22;44209;52.952;6.790;2023-05-07T13:24:38;19.50;99.90
58413;DHT22;44209;52.952;6.790;2023-05-07T13:27:07;19.40;99.90
58413;DHT22;44209;52.952;6.790;2023-05-07T13:29:32;19.40;99.90
58413;DHT22;44209;52.952;6.790;2023-05-07T13:31:59;19.50;99.90
58413;DHT22;44209;52.952;6.790;2023-05-07T13:34:25;19.50;99.90
58413;DHT22;44209;52.952;6.790;2023-05-07T13:36:51;19.70;99.90
58413;DHT22;44209;52.952;6.790;2023-05-07T13:39:16;19.80;99.90
58413;DHT22;44209;52.952;6.790;2023-05-07T13:41:42;19.70;99.90
58413;DHT22;44209;52.952;6.790;2023-05-07T13:44:08;19.60;99.90
58413;DHT22;44209;52.952;6.790;2023-05-07T13:46:33;19.50;99.90
58413;DHT22;44209;52.952;6.790;2023-05-07T13:48:59;19.40;99.90
58413;DHT22;44209;52.952;6.790;2023-05-07T13:51:25;19.50;99.90
58413;DHT22;44209;52.952;6.790;2023-05-07T13:53:51;19.50;99.90
58413;DHT22;44209;52.952;6.790;2023-05-07T13:56:18;19.60;99.90
58413;DHT22;44209;52.952;6.790;2023-05-07T13:58:43;19.70;99.90
58413;DHT22;44209;52.952;6.790;2023-05-07T14:01:09;19.80;99.90
58413;DHT22;44209;52.952;6.790;2023-05-07T14:03:35;20.10;99.90
58413;DHT22;44209;52.952;6.790;2023-05-07T14:06:03;20.30;99.90
58413;DHT22;44209;52.952;6.790;2023-05-07T14:08:29;20.50;99.90
58413;DHT22;44209;52.952;6.790;2023-05-07T14:10:55;20.50;99.90
58413;DHT22;44209;52.952;6.790;2023-05-07T14:13:21;20.40;99.90
58413;DHT22;44209;52.952;6.790;2023-05-07T14:15:46;20.30;99.90
58413;DHT22;44209;52.952;6.790;2023-05-07T14:18:14;20.20;99.90
58413;DHT22;44209;52.952;6.790;2023-05-07T14:20:40;20.30;99.90
58413;DHT22;44209;52.952;6.790;2023-05-07T14:23:06;20.40;99.90
58413;DHT22;44209;52.952;6.790;2023-05-07T14:25:32;20.30;99.90
58413;DHT22;44209;52.952;6.790;2023-05-07T14:27:58;20.10;99.90
58413;DHT22;44209;52.952;6.790;2023-05-07T14:30:23;20.00;99.90
58413;DHT22;44209;52.952;6.790;2023-05-07T14:32:50;19.90;99.90
58413;DHT22;44209;52.952;6.790;2023-05-07T14:35:16;19.80;99.90
58413;DHT22;44209;52.952;6.790;2023-05-07T14:37:43;19.70;99.90
58413;DHT22;44209;52.952;6.790;2023-05-07T14:40:09;19.60;99.90
58413;DHT22;44209;52.952;6.790;2023-05-07T14:42:34;19.50;99.90
58413;DHT22;44209;52.952;6.790;2023-05-07T14:45:00;19.50;99.90
58413;DHT22;44209;52.952;6.790;2023-05-07T14:47:26;19.40;99.90
58413;DHT22;44209;52.952;6.790;2023-05-07T14:49:52;19.30;99.90
58413;DHT22;44209;52.952;6.790;2023-05-07T14:52:18;19.20;99.90
58413;DHT22;44209;52.952;6.790;2023-05-07T14:54:44;19.10;99.90
58413;DHT22;44209;52.952;6.790;2023-05-07T15:07:42;19.30;99.90
58413;DHT22;44209;52.952;6.790;2023-05-07T15:10:08;19.20;99.90
58413;DHT22;44209;52.952;6.790;2023-05-07T15:12:33;19.20;99.90
58413;DHT22;44209;52.952;6.790;2023-05-07T15:14:59;19.20;99.90
58413;DHT22;44209;52.952;6.790;2023-05-07T15:17:25;19.20;99.90
58413;DHT22;44209;52.952;6.790;2023-05-07T15:19:50;19.20;99.90
58413;DHT22;44209;52.952;6.790;2023-05-07T15:22:17;19.20;99.90
58413;DHT22;44209;52.952;6.790;2023-05-07T15:24:43;19.20;99.90
58413;DHT22;44209;52.952;6.790;2023-05-07T15:27:09;19.20;99.90
58413;DHT22;44209;52.952;6.790;2023-05-07T15:29:35;19.30;99.90
58413;DHT22;44209;52.952;6.790;2023-05-07T15:32:01;19.30;99.90
58413;DHT22;44209;52.952;6.790;2023-05-07T15:34:26;19.30;99.90
58413;DHT22;44209;52.952;6.790;2023-05-07T15:36:52;19.30;99.90
58413;DHT22;44209;52.952;6.790;2023-05-07T15:39:18;19.50;99.90
58413;DHT22;44209;52.952;6.790;2023-05-07T15:41:44;19.60;99.90
58413;DHT22;44209;52.952;6.790;2023-05-07T15:44:09;19.90;99.90
58413;DHT22;44209;52.952;6.790;2023-05-07T15:46:35;20.00;99.90
58413;DHT22;44209;52.952;6.790;2023-05-07T15:49:04;20.10;99.90
58413;DHT22;44209;52.952;6.790;2023-05-07T15:51:30;20.20;99.90
58413;DHT22;44209;52.952;6.790;2023-05-07T15:53:56;20.20;99.90
58413;DHT22;44209;52.952;6.790;2023-05-07T15:56:22;20.20;99.90
58413;DHT22;44209;52.952;6.790;2023-05-07T15:58:48;20.20;99.90